Terminal Aerodrome Forecast
Issued by NWS Topeka, KS

Home | Current Version | Previous Version | Graphics & Text | Print | Product List | Glossary On
Versions: 1 2 3 4 5 6 7 8 9 10 11 12 13 14 15 16 17 18 19
000
FTUS43 KTOP 230500
TAFTOP
TAF
KTOP 230520Z 2306/2406 12004KT P6SM SCT120
     FM231000 14009KT P6SM VCSH BKN090
     FM231500 15013G20KT P6SM SCT100
     FM231800 15020G30KT P6SM SCT120=

USA.gov is the U.S. government's official web portal to all federal, state and local government web resources and services.